Terminal Aerodrome Forecast
Issued by NWS

Home | Current Version | Previous Version | Text Only | Print | Product List | Glossary On
Versions: 1 2 3 4 5 6 7 8 9 10 11 12 13 14 15 16 17 18 19 20 21 22 23 24 25 26 27 28 29 30 31 32 33 34 35 36 37 38 39 40 41 42 43 44 45 46 47 48 49 50
000
FTUS45 KBOU 011141
TAFBJC
TAF
KBJC 011141Z 0112/0212 VRB04KT P6SM FEW100 BKN200
     FM011600 12008KT P6SM FEW070 BKN110 BKN200
     FM012000 04012KT P6SM VCTS SCT060CB BKN080
      TEMPO 0121/0124 5SM SHRA BR BKN045 OVC060
     FM020000 01012G20KT 5SM -SHRA BR BKN040 OVC050
      TEMPO 0200/0204 3SM SHRA BR BKN025 OVC040
     FM020500 33009KT P6SM VCSH SCT040 BKN060 PROB30 0205/0207 -SHRA
      BKN040
     FM021000 30006KT P6SM VCFG FEW050 SCT070 BKN120=

USA.gov is the U.S. government's official web portal to all federal, state and local government web resources and services.